Wetterdaten: Woche 08.03.21 - 14.03.21 (KW10)
Datum Zeit Temp. Aussen Temp. o. S. Temp +5cm Feuchte Auss Luftdruck Regen Sonnenschein Regendauer Solar Windben Empfang
08.03.2021 00:00 2,0 C 1,7 C -0,6 C 83 % 1023,9 hPa 0,0 l/m 0,00 h 0,00 h 0 W/m 0,3 km/h (0 Bft) 96,41 %
08.03.2021 01:00 2,1 C 1,7 C -0,7 C 84 % 1023,7 hPa 0,0 l/m 0,00 h 0,00 h 0 W/m 0,9 km/h (0 Bft) 95,75 %
08.03.2021 02:00 2,2 C 1,7 C -0,5 C 83 % 1023,5 hPa 0,0 l/m 0,00 h 0,00 h 0 W/m 0,3 km/h (0 Bft) 96,94 %
08.03.2021 03:00 2,1 C 1,5 C -0,9 C 85 % 1023,2 hPa 0,0 l/m 0,00 h 0,00 h 0 W/m 0,3 km/h (0 Bft) 99,37 %
08.03.2021 04:00 2,0 C 1,4 C -0,8 C 87 % 1022,9 hPa 0,0 l/m 0,00 h 0,00 h 0 W/m 0,1 km/h (0 Bft) 97,28 %
08.03.2021 05:00 2,0 C 1,3 C -0,8 C 88 % 1023,2 hPa 0,0 l/m 0,00 h 0,00 h 0 W/m 0,4 km/h (0 Bft) 94,14 %
08.03.2021 06:00 1,9 C 1,1 C -1,1 C 89 % 1023,3 hPa 0,0 l/m 0,00 h 0,00 h 0 W/m 0,3 km/h (0 Bft) 97,26 %
08.03.2021 07:00 1,9 C 1,5 C -0,6 C 90 % 1023,6 hPa 0,0 l/m 0,00 h 0,00 h 18 W/m 0,2 km/h (0 Bft) 97,23 %
08.03.2021 08:00 2,6 C 2,6 C 0,4 C 89 % 1024,0 hPa 0,0 l/m 0,00 h 0,00 h 46 W/m 1,6 km/h (1 Bft) 97,87 %
08.03.2021 09:00 3,7 C 3,6 C 1,3 C 87 % 1024,2 hPa 0,0 l/m 0,00 h 0,00 h 85 W/m 2,9 km/h (1 Bft) 97,65 %
08.03.2021 10:00 4,2 C 4,1 C 1,8 C 85 % 1024,1 hPa 0,0 l/m 0,00 h 0,00 h 91 W/m 5,7 km/h (1 Bft) 97,58 %
08.03.2021 11:00 4,7 C 5,3 C 2,8 C 86 % 1024,1 hPa 0,0 l/m 0,00 h 0,00 h 176 W/m 7,0 km/h (2 Bft) 97,60 %
08.03.2021 12:00 5,4 C 6,0 C 3,6 C 85 % 1024,2 hPa 0,0 l/m 0,00 h 0,00 h 200 W/m 5,9 km/h (2 Bft) 97,89 %
08.03.2021 13:00 6,4 C 7,8 C 4,9 C 83 % 1023,7 hPa 0,0 l/m 0,67 h 0,00 h 292 W/m 5,0 km/h (1 Bft) 96,79 %
08.03.2021 14:00 7,0 C 7,7 C 5,0 C 81 % 1023,2 hPa 0,0 l/m 0,37 h 0,00 h 241 W/m 6,6 km/h (2 Bft) 98,36 %
08.03.2021 15:00 7,2 C 7,6 C 4,7 C 80 % 1022,8 hPa 0,0 l/m 0,13 h 0,00 h 159 W/m 3,8 km/h (1 Bft) 99,57 %
08.03.2021 16:00 7,3 C 7,8 C 4,5 C 79 % 1022,4 hPa 0,0 l/m 0,37 h 0,00 h 135 W/m 2,1 km/h (1 Bft) 95,33 %
08.03.2021 17:00 7,0 C 6,8 C 4,0 C 80 % 1022,1 hPa 0,0 l/m 0,40 h 0,00 h 57 W/m 1,2 km/h (1 Bft) 96,36 %
08.03.2021 18:00 6,2 C 5,1 C 2,8 C 83 % 1022,1 hPa 0,0 l/m 0,00 h 0,00 h 12 W/m 1,2 km/h (1 Bft) 98,93 %
08.03.2021 19:00 5,4 C 4,4 C 2,3 C 85 % 1022,0 hPa 0,0 l/m 0,00 h 0,00 h 0 W/m 0,5 km/h (0 Bft) 96,38 %
08.03.2021 20:00 4,9 C 4,0 C 2,3 C 87 % 1022,0 hPa 0,0 l/m 0,00 h 0,00 h 0 W/m 0,6 km/h (0 Bft) 99,64 %
08.03.2021 21:00 4,6 C 3,9 C 2,3 C 89 % 1021,8 hPa 0,0 l/m 0,00 h 0,00 h 0 W/m 2,8 km/h (1 Bft) 95,52 %
08.03.2021 22:00 4,5 C 3,9 C 2,3 C 89 % 1021,5 hPa 0,0 l/m 0,00 h 0,00 h 0 W/m 1,5 km/h (1 Bft) 89,46 %
08.03.2021 23:00 4,6 C 3,9 C 2,3 C 90 % 1021,3 hPa 0,0 l/m 0,00 h 0,00 h 0 W/m 0,2 km/h (0 Bft) 92,90 %
09.03.2021 00:00 4,5 C 3,9 C 2,3 C 89 % 1020,9 hPa 0,0 l/m 0,00 h 0,00 h 0 W/m 0,8 km/h (0 Bft) 96,87 %
09.03.2021 01:00 4,5 C 3,9 C 2,0 C 90 % 1020,7 hPa 0,0 l/m 0,00 h 0,23 h 0 W/m 1,5 km/h (1 Bft) 94,49 %
09.03.2021 02:00 4,3 C 3,6 C 1,7 C 91 % 1020,4 hPa 0,2 l/m 0,00 h 0,47 h 0 W/m 1,3 km/h (1 Bft) 94,84 %
09.03.2021 03:00 4,0 C 3,3 C 1,5 C 93 % 1019,8 hPa 0,2 l/m 0,00 h 0,77 h 0 W/m 2,1 km/h (1 Bft) 96,79 %
09.03.2021 04:00 3,7 C 3,2 C 1,1 C 94 % 1019,3 hPa 0,4 l/m 0,00 h 0,83 h 0 W/m 2,8 km/h (1 Bft) 96,00 %
09.03.2021 05:00 3,5 C 2,8 C 1,1 C 95 % 1019,0 hPa 0,4 l/m 0,00 h 1,00 h 0 W/m 7,9 km/h (2 Bft) 96,35 %
09.03.2021 06:00 3,3 C 2,8 C 1,1 C 95 % 1018,5 hPa 0,2 l/m 0,00 h 0,93 h 0 W/m 10,1 km/h (2 Bft) 94,87 %
09.03.2021 07:00 3,1 C 2,8 C 1,1 C 96 % 1018,3 hPa 0,4 l/m 0,00 h 0,83 h 7 W/m 13,2 km/h (3 Bft) 95,76 %
09.03.2021 08:00 3,1 C 2,8 C 1,5 C 96 % 1018,4 hPa 0,2 l/m 0,00 h 0,77 h 20 W/m 13,1 km/h (3 Bft) 96,56 %
09.03.2021 09:00 3,1 C 2,8 C 1,7 C 96 % 1018,2 hPa 0,4 l/m 0,00 h 0,70 h 42 W/m 14,9 km/h (3 Bft) 96,80 %
09.03.2021 10:00 3,4 C 3,0 C 2,1 C 97 % 1018,0 hPa 0,2 l/m 0,00 h 0,37 h 58 W/m 8,6 km/h (2 Bft) 98,03 %
09.03.2021 11:00 4,2 C 4,0 C 3,0 C 98 % 1017,9 hPa 0,0 l/m 0,00 h 0,00 h 69 W/m 7,3 km/h (2 Bft) 96,76 %
09.03.2021 12:00 5,1 C 5,3 C 4,1 C 98 % 1017,8 hPa 0,0 l/m 0,00 h 0,00 h 133 W/m 5,2 km/h (1 Bft) 99,56 %
09.03.2021 13:00 6,2 C 6,5 C 5,1 C 97 % 1017,5 hPa 0,0 l/m 0,00 h 0,00 h 134 W/m 5,5 km/h (1 Bft) 98,09 %
09.03.2021 14:00 6,2 C 5,7 C 4,6 C 96 % 1017,2 hPa 0,4 l/m 0,00 h 0,50 h 29 W/m 3,9 km/h (1 Bft) 95,07 %
09.03.2021 15:00 6,1 C 5,6 C 4,5 C 96 % 1017,2 hPa 0,2 l/m 0,00 h 0,00 h 31 W/m 2,1 km/h (1 Bft) 97,86 %
09.03.2021 16:00 5,9 C 5,6 C 4,1 C 95 % 1017,4 hPa 0,0 l/m 0,00 h 0,03 h 32 W/m 8,5 km/h (2 Bft) 96,37 %
09.03.2021 17:00 5,8 C 5,5 C 3,9 C 93 % 1017,5 hPa 0,0 l/m 0,00 h 0,00 h 15 W/m 5,7 km/h (1 Bft) 98,41 %
09.03.2021 18:00 5,6 C 5,0 C 3,9 C 93 % 1018,0 hPa 0,0 l/m 0,00 h 0,00 h 6 W/m 1,7 km/h (1 Bft) 99,26 %
09.03.2021 19:00 5,5 C 5,0 C 3,7 C 92 % 1018,6 hPa 0,0 l/m 0,00 h 0,00 h 0 W/m 3,1 km/h (1 Bft) 97,23 %
09.03.2021 20:00 5,4 C 4,7 C 3,4 C 93 % 1018,9 hPa 0,0 l/m 0,00 h 0,00 h 0 W/m 1,6 km/h (1 Bft) 98,55 %
09.03.2021 21:00 4,9 C 3,8 C 2,7 C 93 % 1019,1 hPa 0,0 l/m 0,00 h 0,00 h 0 W/m 0,0 km/h (0 Bft) 97,51 %
09.03.2021 22:00 4,2 C 3,1 C 2,1 C 92 % 1019,1 hPa 0,0 l/m 0,00 h 0,00 h 0 W/m 0,0 km/h (0 Bft) 97,27 %
09.03.2021 23:00 4,2 C 3,7 C 2,7 C 94 % 1019,0 hPa 0,0 l/m 0,00 h 0,00 h 0 W/m 0,0 km/h (0 Bft) 93,59 %
10.03.2021 00:00 4,2 C 3,4 C 2,5 C 95 % 1019,0 hPa 0,0 l/m 0,00 h 0,00 h 0 W/m 0,0 km/h (0 Bft) 98,65 %
10.03.2021 01:00 3,9 C 2,9 C 2,0 C 95 % 1019,0 hPa 0,0 l/m 0,00 h 0,00 h 0 W/m 0,0 km/h (0 Bft) 97,93 %
10.03.2021 02:00 3,1 C 1,9 C 1,1 C 94 % 1019,4 hPa 0,0 l/m 0,00 h 0,00 h 0 W/m 0,0 km/h (0 Bft) 97,80 %
10.03.2021 03:00 3,2 C 2,7 C 1,9 C 95 % 1019,1 hPa 0,0 l/m 0,00 h 0,00 h 0 W/m 0,0 km/h (0 Bft) 97,54 %
10.03.2021 04:00 2,7 C 1,2 C 0,7 C 95 % 1018,8 hPa 0,0 l/m 0,00 h 0,00 h 0 W/m 0,0 km/h (0 Bft) 99,34 %
10.03.2021 05:00 2,3 C 2,0 C 1,4 C 95 % 1018,7 hPa 0,0 l/m 0,00 h 0,00 h 0 W/m 0,1 km/h (0 Bft) 96,18 %
10.03.2021 06:00 3,2 C 3,1 C 2,4 C 97 % 1018,7 hPa 0,0 l/m 0,00 h 0,00 h 1 W/m 2,1 km/h (1 Bft) 97,71 %
10.03.2021 07:00 3,7 C 3,5 C 2,8 C 97 % 1018,5 hPa 0,0 l/m 0,00 h 0,00 h 14 W/m 4,7 km/h (1 Bft) 95,75 %
10.03.2021 08:00 4,3 C 4,1 C 3,4 C 97 % 1018,8 hPa 0,0 l/m 0,00 h 0,00 h 36 W/m 7,7 km/h (2 Bft) 95,87 %
10.03.2021 09:00 5,1 C 5,5 C 4,4 C 97 % 1018,7 hPa 0,0 l/m 0,00 h 0,00 h 124 W/m 8,2 km/h (2 Bft) 95,92 %
10.03.2021 10:00 6,3 C 7,0 C 5,6 C 95 % 1018,3 hPa 0,0 l/m 0,03 h 0,00 h 195 W/m 11,6 km/h (2 Bft) 98,01 %
10.03.2021 11:00 7,9 C 9,3 C 7,8 C 87 % 1017,9 hPa 0,0 l/m 0,80 h 0,00 h 287 W/m 13,1 km/h (3 Bft) 97,58 %
10.03.2021 12:00 9,4 C 10,3 C 8,2 C 75 % 1017,5 hPa 0,0 l/m 0,53 h 0,00 h 281 W/m 16,0 km/h (3 Bft) 98,20 %
10.03.2021 13:00 10,3 C 11,0 C 8,3 C 67 % 1016,8 hPa 0,0 l/m 0,17 h 0,00 h 264 W/m 16,7 km/h (3 Bft) 98,44 %
10.03.2021 14:00 10,9 C 11,7 C 8,3 C 66 % 1015,6 hPa 0,0 l/m 0,77 h 0,00 h 273 W/m 22,8 km/h (4 Bft) 96,37 %
10.03.2021 15:00 10,9 C 10,7 C 7,9 C 65 % 1014,8 hPa 0,0 l/m 0,00 h 0,00 h 125 W/m 21,9 km/h (4 Bft) 98,79 %
10.03.2021 16:00 10,8 C 10,3 C 7,5 C 66 % 1014,0 hPa 0,0 l/m 0,00 h 0,00 h 78 W/m 20,5 km/h (4 Bft) 97,36 %
10.03.2021 17:00 10,4 C 9,7 C 6,9 C 68 % 1012,9 hPa 0,0 l/m 0,00 h 0,00 h 31 W/m 16,5 km/h (3 Bft) 97,30 %
10.03.2021 18:00 9,9 C 9,2 C 6,3 C 68 % 1012,3 hPa 0,0 l/m 0,00 h 0,00 h 11 W/m 17,9 km/h (3 Bft) 99,82 %
10.03.2021 19:00 9,5 C 8,9 C 6,1 C 70 % 1011,6 hPa 0,0 l/m 0,00 h 0,00 h 0 W/m 16,0 km/h (3 Bft) 96,09 %
10.03.2021 20:00 9,4 C 8,6 C 5,4 C 70 % 1010,7 hPa 0,0 l/m 0,00 h 0,27 h 0 W/m 29,0 km/h (5 Bft) 95,81 %
10.03.2021 21:00 8,6 C 7,6 C 4,1 C 76 % 1010,0 hPa 0,4 l/m 0,00 h 0,97 h 0 W/m 28,7 km/h (4 Bft) 99,71 %
10.03.2021 22:00 7,1 C 6,1 C 3,4 C 87 % 1008,9 hPa 0,4 l/m 0,00 h 0,57 h 0 W/m 16,7 km/h (3 Bft) 96,51 %
10.03.2021 23:00 6,7 C 6,0 C 3,9 C 91 % 1007,4 hPa 0,4 l/m 0,00 h 0,33 h 0 W/m 17,9 km/h (3 Bft) 98,58 %
11.03.2021 00:00 6,4 C 5,8 C 3,9 C 93 % 1005,9 hPa 0,0 l/m 0,00 h 0,00 h 0 W/m 17,9 km/h (3 Bft) 94,63 %
11.03.2021 01:00 6,8 C 6,3 C 4,3 C 92 % 1004,9 hPa 0,0 l/m 0,00 h 0,00 h 0 W/m 19,8 km/h (4 Bft) 96,37 %
11.03.2021 02:00 7,4 C 6,8 C 4,6 C 89 % 1003,7 hPa 0,0 l/m 0,00 h 0,00 h 0 W/m 24,0 km/h (4 Bft) 97,50 %
11.03.2021 03:00 7,9 C 7,3 C 5,0 C 87 % 1002,1 hPa 0,0 l/m 0,00 h 0,00 h 0 W/m 27,8 km/h (4 Bft) 98,01 %
11.03.2021 04:00 8,1 C 7,5 C 5,2 C 88 % 1001,0 hPa 0,0 l/m 0,00 h 0,00 h 0 W/m 31,0 km/h (5 Bft) 97,93 %
11.03.2021 05:00 8,1 C 7,6 C 5,7 C 90 % 1000,0 hPa 0,0 l/m 0,00 h 0,00 h 0 W/m 26,8 km/h (4 Bft) 96,58 %
11.03.2021 06:00 8,8 C 7,8 C 6,0 C 91 % 999,3 hPa 0,4 l/m 0,00 h 0,70 h 0 W/m 32,3 km/h (5 Bft) 97,13 %
11.03.2021 07:00 9,5 C 8,7 C 6,6 C 90 % 998,7 hPa 0,0 l/m 0,00 h 0,07 h 6 W/m 35,1 km/h (5 Bft) 97,65 %
11.03.2021 08:00 10,2 C 9,8 C 7,5 C 88 % 997,9 hPa 0,0 l/m 0,07 h 0,47 h 57 W/m 40,0 km/h (6 Bft) 98,45 %
11.03.2021 09:00 11,1 C 10,8 C 8,8 C 86 % 997,3 hPa 0,2 l/m 0,23 h 0,50 h 134 W/m 42,6 km/h (6 Bft) 98,44 %
11.03.2021 10:00 11,1 C 11,7 C 10,1 C 84 % 996,9 hPa 0,0 l/m 0,40 h 0,63 h 259 W/m 32,5 km/h (5 Bft) 96,49 %
11.03.2021 11:00 13,2 C 15,8 C 14,3 C 73 % 996,7 hPa 0,0 l/m 0,80 h 0,00 h 498 W/m 38,4 km/h (5 Bft) 98,29 %
11.03.2021 12:00 13,4 C 13,7 C 11,2 C 66 % 997,2 hPa 0,0 l/m 0,10 h 0,00 h 225 W/m 35,4 km/h (5 Bft) 96,54 %
11.03.2021 13:00 13,8 C 14,4 C 11,8 C 64 % 997,4 hPa 0,0 l/m 0,33 h 0,07 h 260 W/m 34,4 km/h (5 Bft) 97,61 %
11.03.2021 14:00 13,1 C 13,7 C 10,3 C 67 % 997,7 hPa 0,2 l/m 0,30 h 0,43 h 218 W/m 25,3 km/h (4 Bft) 98,69 %
11.03.2021 15:00 11,9 C 12,5 C 8,4 C 72 % 998,1 hPa 0,0 l/m 0,23 h 0,20 h 161 W/m 28,5 km/h (4 Bft) 96,87 %
11.03.2021 16:00 11,2 C 10,7 C 6,2 C 73 % 998,3 hPa 0,6 l/m 0,23 h 0,40 h 102 W/m 24,7 km/h (4 Bft) 98,65 %
11.03.2021 17:00 11,5 C 10,9 C 7,3 C 67 % 998,4 hPa 0,0 l/m 0,13 h 0,00 h 55 W/m 30,0 km/h (5 Bft) 97,65 %
11.03.2021 18:00 10,7 C 10,0 C 7,0 C 68 % 999,1 hPa 0,0 l/m 0,20 h 0,00 h 18 W/m 23,6 km/h (4 Bft) 94,22 %
11.03.2021 19:00 10,3 C 9,4 C 6,7 C 70 % 999,9 hPa 0,0 l/m 0,00 h 0,03 h 0 W/m 21,6 km/h (4 Bft) 99,50 %
11.03.2021 20:00 9,3 C 8,4 C 5,7 C 74 % 1000,6 hPa 0,0 l/m 0,00 h 0,00 h 0 W/m 25,7 km/h (4 Bft) 98,86 %
11.03.2021 21:00 8,5 C 7,8 C 5,1 C 76 % 1001,1 hPa 0,0 l/m 0,00 h 0,00 h 0 W/m 27,3 km/h (4 Bft) 94,59 %
11.03.2021 22:00 8,4 C 7,8 C 5,0 C 76 % 1001,7 hPa 0,0 l/m 0,00 h 0,00 h 0 W/m 26,2 km/h (4 Bft) 99,41 %
11.03.2021 23:00 7,7 C 6,9 C 4,6 C 80 % 1002,5 hPa 0,0 l/m 0,00 h 0,00 h 0 W/m 24,9 km/h (4 Bft) 98,11 %
12.03.2021 00:00 6,9 C 6,1 C 3,5 C 83 % 1003,6 hPa 0,2 l/m 0,00 h 0,63 h 0 W/m 24,8 km/h (4 Bft) 96,96 %
12.03.2021 01:00 6,3 C 5,6 C 3,6 C 87 % 1004,3 hPa 0,0 l/m 0,00 h 0,37 h 0 W/m 22,5 km/h (4 Bft) 95,90 %
12.03.2021 02:00 6,5 C 5,9 C 4,0 C 86 % 1005,4 hPa 0,0 l/m 0,00 h 0,50 h 0 W/m 21,7 km/h (4 Bft) 96,68 %
12.03.2021 03:00 6,4 C 6,0 C 3,9 C 83 % 1006,0 hPa 0,0 l/m 0,00 h 0,03 h 0 W/m 22,3 km/h (4 Bft) 96,32 %
12.03.2021 04:00 6,4 C 5,9 C 3,9 C 82 % 1006,6 hPa 0,0 l/m 0,00 h 0,00 h 0 W/m 20,3 km/h (4 Bft) 98,09 %
12.03.2021 05:00 6,0 C 5,4 C 3,4 C 81 % 1007,1 hPa 0,0 l/m 0,00 h 0,00 h 0 W/m 19,7 km/h (3 Bft) 99,08 %
12.03.2021 06:00 5,5 C 4,7 C 2,9 C 84 % 1007,5 hPa 0,0 l/m 0,00 h 0,00 h 5 W/m 13,1 km/h (3 Bft) 94,71 %
12.03.2021 07:00 5,6 C 5,1 C 3,4 C 86 % 1007,6 hPa 0,0 l/m 0,00 h 0,00 h 33 W/m 16,2 km/h (3 Bft) 95,99 %
12.03.2021 08:00 6,1 C 6,1 C 4,1 C 85 % 1007,9 hPa 0,0 l/m 0,37 h 0,00 h 109 W/m 21,9 km/h (4 Bft) 99,57 %
12.03.2021 09:00 7,0 C 7,3 C 5,4 C 83 % 1008,3 hPa 0,0 l/m 0,37 h 0,00 h 167 W/m 25,0 km/h (4 Bft) 97,08 %
12.03.2021 10:00 8,1 C 8,7 C 7,0 C 79 % 1008,2 hPa 0,0 l/m 0,57 h 0,00 h 263 W/m 33,7 km/h (5 Bft) 96,94 %
12.03.2021 11:00 8,9 C 9,4 C 7,2 C 75 % 1007,8 hPa 0,0 l/m 0,17 h 0,00 h 235 W/m 32,9 km/h (5 Bft) 97,94 %
12.03.2021 12:00 9,6 C 10,5 C 7,6 C 69 % 1006,8 hPa 0,0 l/m 0,63 h 0,00 h 305 W/m 39,3 km/h (6 Bft) 96,93 %
12.03.2021 13:00 9,6 C 9,4 C 6,7 C 70 % 1006,0 hPa 0,0 l/m 0,00 h 0,03 h 142 W/m 36,2 km/h (5 Bft) 96,91 %
12.03.2021 14:00 9,8 C 9,5 C 6,8 C 70 % 1005,0 hPa 0,0 l/m 0,03 h 0,20 h 142 W/m 37,8 km/h (5 Bft) 95,58 %
12.03.2021 15:00 7,8 C 6,7 C 4,0 C 86 % 1004,7 hPa 1,0 l/m 0,00 h 0,90 h 75 W/m 31,1 km/h (5 Bft) 99,43 %
12.03.2021 16:00 7,2 C 6,7 C 4,4 C 89 % 1003,7 hPa 0,2 l/m 0,00 h 0,80 h 98 W/m 39,8 km/h (6 Bft) 96,73 %
12.03.2021 17:00 7,3 C 6,7 C 4,5 C 86 % 1003,5 hPa 0,0 l/m 0,00 h 0,00 h 34 W/m 30,6 km/h (5 Bft) 97,92 %
12.03.2021 18:00 7,3 C 6,7 C 4,2 C 85 % 1003,3 hPa 0,0 l/m 0,00 h 0,00 h 8 W/m 29,9 km/h (5 Bft) 96,73 %
12.03.2021 19:00 6,9 C 6,3 C 3,9 C 85 % 1003,5 hPa 0,0 l/m 0,00 h 0,00 h 0 W/m 25,7 km/h (4 Bft) 97,51 %
12.03.2021 20:00 6,6 C 6,1 C 4,0 C 86 % 1003,5 hPa 0,0 l/m 0,00 h 0,00 h 0 W/m 25,0 km/h (4 Bft) 97,72 %
12.03.2021 21:00 6,6 C 5,9 C 4,0 C 86 % 1003,6 hPa 0,0 l/m 0,00 h 0,00 h 0 W/m 27,6 km/h (4 Bft) 97,87 %
12.03.2021 22:00 6,5 C 5,8 C 4,2 C 87 % 1003,7 hPa 0,0 l/m 0,00 h 0,00 h 0 W/m 26,4 km/h (4 Bft) 96,75 %
12.03.2021 23:00 6,8 C 6,1 C 4,5 C 85 % 1003,6 hPa 0,0 l/m 0,00 h 0,00 h 0 W/m 26,5 km/h (4 Bft) 94,20 %
13.03.2021 00:00 7,0 C 6,2 C 4,5 C 84 % 1003,3 hPa 0,0 l/m 0,00 h 0,00 h 0 W/m 20,5 km/h (4 Bft) 98,29 %
13.03.2021 01:00 7,0 C 6,4 C 4,5 C 85 % 1002,4 hPa 0,0 l/m 0,00 h 0,03 h 0 W/m 25,2 km/h (4 Bft) 98,79 %
13.03.2021 02:00 6,6 C 5,7 C 4,0 C 90 % 1001,2 hPa 0,2 l/m 0,00 h 0,87 h 0 W/m 26,4 km/h (4 Bft) 96,87 %
13.03.2021 03:00 6,0 C 5,0 C 3,9 C 94 % 999,7 hPa 0,6 l/m 0,00 h 1,00 h 0 W/m 26,7 km/h (4 Bft) 98,26 %
13.03.2021 04:00 6,0 C 5,2 C 4,1 C 95 % 997,9 hPa 0,6 l/m 0,00 h 0,97 h 0 W/m 24,3 km/h (4 Bft) 95,19 %
13.03.2021 05:00 6,7 C 5,6 C 4,7 C 94 % 996,3 hPa 0,8 l/m 0,00 h 1,00 h 0 W/m 31,2 km/h (5 Bft) 96,09 %
13.03.2021 06:00 7,0 C 6,2 C 5,0 C 94 % 994,7 hPa 0,6 l/m 0,00 h 1,00 h 0 W/m 34,2 km/h (5 Bft) 98,10 %
13.03.2021 07:00 7,6 C 6,6 C 5,6 C 90 % 993,4 hPa 0,4 l/m 0,00 h 1,00 h 20 W/m 47,5 km/h (6 Bft) 97,37 %
13.03.2021 08:00 7,3 C 5,9 C 4,9 C 87 % 993,6 hPa 0,4 l/m 0,00 h 0,70 h 31 W/m 44,6 km/h (6 Bft) 98,15 %
13.03.2021 09:00 6,9 C 6,1 C 4,4 C 84 % 994,1 hPa 0,0 l/m 0,00 h 0,00 h 75 W/m 31,9 km/h (5 Bft) 99,36 %
13.03.2021 10:00 7,4 C 6,9 C 4,6 C 84 % 994,2 hPa 0,0 l/m 0,00 h 0,17 h 100 W/m 32,6 km/h (5 Bft) 94,36 %
13.03.2021 11:00 8,5 C 9,4 C 6,5 C 78 % 994,1 hPa 0,2 l/m 0,50 h 0,20 h 311 W/m 38,0 km/h (5 Bft) 97,87 %
13.03.2021 12:00 8,9 C 11,2 C 7,6 C 78 % 994,0 hPa 0,0 l/m 0,67 h 0,13 h 478 W/m 33,1 km/h (5 Bft) 98,19 %
13.03.2021 13:00 8,4 C 9,6 C 5,5 C 82 % 994,1 hPa 0,6 l/m 0,43 h 0,27 h 321 W/m 35,7 km/h (5 Bft) 96,29 %
13.03.2021 14:00 9,0 C 11,0 C 5,3 C 80 % 994,3 hPa 0,0 l/m 0,60 h 0,33 h 370 W/m 32,2 km/h (5 Bft) 96,37 %
13.03.2021 15:00 8,0 C 7,6 C 4,6 C 82 % 995,1 hPa 0,4 l/m 0,07 h 0,43 h 101 W/m 26,1 km/h (4 Bft) 99,35 %
13.03.2021 16:00 4,6 C 4,4 C 1,9 C 90 % 996,2 hPa 1,6 l/m 0,17 h 0,37 h 128 W/m 19,7 km/h (3 Bft) 96,51 %
13.03.2021 17:00 6,2 C 5,9 C 3,5 C 87 % 996,7 hPa 1,0 l/m 0,10 h 0,33 h 34 W/m 18,0 km/h (3 Bft) 97,37 %
13.03.2021 18:00 6,6 C 5,8 C 3,1 C 80 % 997,5 hPa 0,6 l/m 0,00 h 0,53 h 9 W/m 23,1 km/h (4 Bft) 93,62 %
13.03.2021 19:00 5,5 C 4,7 C 2,6 C 84 % 998,3 hPa 0,4 l/m 0,00 h 0,77 h 0 W/m 16,5 km/h (3 Bft) 89,81 %
13.03.2021 20:00 5,6 C 5,0 C 2,9 C 84 % 999,2 hPa 0,0 l/m 0,00 h 0,07 h 0 W/m 14,3 km/h (3 Bft) 96,49 %
13.03.2021 21:00 5,4 C 4,7 C 3,1 C 84 % 999,7 hPa 0,0 l/m 0,00 h 0,00 h 0 W/m 16,4 km/h (3 Bft) 98,14 %
13.03.2021 22:00 4,9 C 4,2 C 2,8 C 84 % 1000,4 hPa 0,0 l/m 0,00 h 0,00 h 0 W/m 19,7 km/h (3 Bft) 99,43 %
13.03.2021 23:00 4,8 C 4,2 C 2,8 C 85 % 1001,0 hPa 0,0 l/m 0,00 h 0,00 h 0 W/m 14,1 km/h (3 Bft) 96,43 %
14.03.2021 00:00 4,6 C 3,8 C 2,7 C 86 % 1001,6 hPa 0,0 l/m 0,00 h 0,00 h 0 W/m 13,5 km/h (3 Bft) 98,01 %
14.03.2021 01:00 4,2 C 3,4 C 2,3 C 88 % 1002,4 hPa 0,0 l/m 0,00 h 0,00 h 0 W/m 17,7 km/h (3 Bft) 99,56 %
14.03.2021 02:00 4,2 C 3,7 C 2,6 C 89 % 1003,4 hPa 0,0 l/m 0,00 h 0,00 h 0 W/m 16,6 km/h (3 Bft) 97,22 %
14.03.2021 03:00 4,4 C 3,9 C 2,8 C 89 % 1003,9 hPa 0,0 l/m 0,00 h 0,00 h 0 W/m 20,4 km/h (4 Bft) 100,00 %
14.03.2021 04:00 4,0 C 3,3 C 2,3 C 89 % 1004,8 hPa 0,0 l/m 0,00 h 0,00 h 0 W/m 15,3 km/h (3 Bft) 97,34 %
14.03.2021 05:00 3,9 C 3,3 C 2,3 C 89 % 1005,6 hPa 0,0 l/m 0,00 h 0,00 h 0 W/m 15,3 km/h (3 Bft) 96,54 %
14.03.2021 06:00 3,7 C 3,0 C 2,3 C 90 % 1006,4 hPa 0,0 l/m 0,00 h 0,00 h 11 W/m 15,0 km/h (3 Bft) 97,97 %
14.03.2021 07:00 3,6 C 3,3 C 2,5 C 90 % 1007,1 hPa 0,0 l/m 0,23 h 0,03 h 39 W/m 14,4 km/h (3 Bft) 94,87 %
14.03.2021 08:00 3,7 C 3,2 C 2,1 C 92 % 1008,3 hPa 0,6 l/m 0,00 h 0,90 h 31 W/m 13,3 km/h (3 Bft) 96,92 %
14.03.2021 09:00 3,9 C 3,5 C 2,7 C 94 % 1009,0 hPa 0,8 l/m 0,00 h 1,00 h 66 W/m 10,5 km/h (2 Bft) 98,01 %
14.03.2021 10:00 4,6 C 4,4 C 3,5 C 95 % 1009,9 hPa 0,4 l/m 0,13 h 0,87 h 136 W/m 10,7 km/h (2 Bft) 97,58 %
14.03.2021 11:00 5,3 C 6,6 C 5,5 C 94 % 1010,5 hPa 0,2 l/m 0,60 h 0,27 h 320 W/m 14,7 km/h (3 Bft) 97,66 %
14.03.2021 12:00 6,8 C 7,5 C 5,7 C 90 % 1011,0 hPa 0,0 l/m 0,27 h 0,00 h 245 W/m 13,0 km/h (3 Bft) 97,44 %
14.03.2021 13:00 7,3 C 7,9 C 5,3 C 87 % 1011,1 hPa 0,0 l/m 0,07 h 0,37 h 148 W/m 13,2 km/h (3 Bft) 96,87 %
14.03.2021 14:00 7,5 C 9,3 C 5,2 C 88 % 1011,2 hPa 0,6 l/m 0,23 h 0,17 h 259 W/m 16,0 km/h (3 Bft) 97,03 %
14.03.2021 15:00 8,2 C 9,2 C 6,1 C 81 % 1011,5 hPa 0,0 l/m 0,33 h 0,03 h 233 W/m 21,5 km/h (4 Bft) 97,77 %
14.03.2021 16:00 8,4 C 9,1 C 5,7 C 76 % 1011,7 hPa 0,0 l/m 0,37 h 0,00 h 163 W/m 21,9 km/h (4 Bft) 98,86 %
14.03.2021 17:00 7,4 C 7,0 C 4,7 C 77 % 1012,2 hPa 0,0 l/m 0,10 h 0,00 h 63 W/m 15,7 km/h (3 Bft) 94,81 %
14.03.2021 18:00 6,9 C 6,2 C 4,1 C 79 % 1012,7 hPa 0,0 l/m 0,13 h 0,00 h 17 W/m 12,3 km/h (3 Bft) 97,68 %
14.03.2021 19:00 6,3 C 5,5 C 3,4 C 83 % 1013,2 hPa 0,0 l/m 0,00 h 0,00 h 0 W/m 7,6 km/h (2 Bft) 98,43 %
14.03.2021 20:00 5,8 C 5,0 C 3,4 C 87 % 1013,1 hPa 0,0 l/m 0,00 h 0,13 h 0 W/m 8,7 km/h (2 Bft) 94,94 %
14.03.2021 21:00 5,5 C 4,8 C 3,4 C 89 % 1013,0 hPa 0,0 l/m 0,00 h 0,10 h 0 W/m 13,1 km/h (3 Bft) 98,01 %
14.03.2021 22:00 5,2 C 4,4 C 3,3 C 90 % 1012,5 hPa 0,0 l/m 0,00 h 0,00 h 0 W/m 11,2 km/h (2 Bft) 95,71 %
14.03.2021 23:00 5,0 C 4,4 C 3,2 C 91 % 1011,9 hPa 0,0 l/m 0,00 h 0,10 h 0 W/m 15,9 km/h (3 Bft) 97,37 %
Min-Datum _ 08.03.21 10.03.21 08.03.21 11.03.21 13.03.21 - - - - 08.03.21 14.03.21
_ Min-Zeit 06:38 04:34 00:00 14:16 07:58 - - - - 00:00 20:58
Minimum _ 1,8 C 0,6 C -1,1 C 62 % 992,6 hPa - - - - 0,0 km/h (0 Bft) 39,39 %
Max-Datum _ 11.03.21 11.03.21 11.03.21 09.03.21 08.03.21 13.03.21 11.03.21 13.03.21 14.03.21 13.03.21 08.03.21
_ Max-Zeit 14:16 14:12 11:16 11:20 09:14 16:10 18:08 04:07 12:02 08:06 00:00
Maximum _ 14,2 C 18,9 C 16,7 C 98 % 1024,3 hPa 1,6 l/m 0,07 h 0,08 h 810 W/m 70,8 km/h
SW (8 Bft)
100,00 %
Durchschnitt _ 6,4 C 6,1 C 4,1 C 85 % 1009,8 hPa #18,2 l/m #14:24 h #30:40 h 128 W/m 16,7 km/h (3 Bft) 97,13 %
© 2021 W. Hausmann